Terminal Aerodrome Forecast
Issued by NWS Tuscon, AZ

Home | Current Version | Previous Version | Text Only | Print | Product List | Glossary On
Versions: 1 2 3 4 5 6 7 8 9 10 11 12 13 14 15 16 17 18 19 20 21 22 23 24
000
FTUS45 KTWC 212325
TAFDUG
TAF
KDUG 212325Z 2200/2224 24018G28KT P6SM SCT250
     FM220400 22008KT P6SM SKC
     FM221200 20006KT P6SM SCT150
     FM221800 22015G24KT P6SM SCT100=

USA.gov is the U.S. government's official web portal to all federal, state and local government web resources and services.